Latest Weather Observations for Jandakot

IDW60901

Issued at 4:51 pm WST Tuesday 14 August 2018 (issued every 10 minutes, with the page automatically refreshed every 10 minutes)

About weather observations | Map of Perth area stations | Latest observations for Perth area | Other Formats
Station Details ID: 009172 Name: JANDAKOT AERO Lat: -32.10 Lon: 115.88 Height: 30.0 m
Data from the previous 72 hours. | See also: Recent months at Jandakot
Date/Time
WST
Temp
°C
App
Temp
°C
Dew
Point
°C
Rel
Hum
%
Delta-T
°C
Wind Press
QNH
hPa
Press
MSL
hPa
Rain since
9am
mm
Dir  Spd
km/h
Gust
km/h
Spd
kts
Gust
kts
14/04:30pm 15.9 12.9 11.9 77 2.2 SW 19 26 10 14 1019.5 1019.5 0.0
14/04:00pm 16.7 12.2 10.1 65 3.5 WSW 24 30 13 16 1019.1 1019.1 0.0
14/03:30pm 17.3 13.9 10.7 65 3.5 WSW 19 26 10 14 1018.8 1018.8 0.0
14/03:00pm 16.6 12.5 10.2 66 3.4 WSW 22 26 12 14 1018.7 1018.7 0.0
14/02:30pm 16.9 13.0 9.3 61 4.0 W 20 32 11 17 1018.4 1018.4 0.0
14/02:00pm 17.7 13.9 11.0 65 3.6 WSW 22 32 12 17 1018.4 1018.4 0.0
14/01:30pm 17.7 13.2 10.1 61 4.0 SW 24 32 13 17 1018.5 1018.5 0.0
14/01:00pm 16.7 12.2 10.1 65 3.5 SW 24 33 13 18 1018.7 1018.7 0.0
14/12:30pm 17.8 13.8 11.8 68 3.3 SW 24 32 13 17 1018.8 1018.8 0.0
14/12:00pm 17.7 13.6 11.3 66 3.5 SW 24 35 13 19 1018.8 1018.8 0.0
14/11:30am 17.0 12.5 10.1 64 3.6 SW 24 32 13 17 1019.0 1019.0 0.0
14/11:00am 16.9 12.4 10.1 64 3.6 SW 24 35 13 19 1019.0 1019.0 0.0
14/10:30am 17.2 13.2 10.6 65 3.5 SW 22 32 12 17 1019.1 1019.1 0.0
14/10:00am 16.3 11.6 10.6 69 3.0 SW 26 35 14 19 1019.0 1019.0 0.0
14/09:30am 15.6 13.2 12.7 83 1.6 SW 17 26 9 14 1018.8 1018.8 0.0
14/09:00am 15.7 13.3 12.5 81 1.8 SW 17 20 9 11 1018.5 1018.5 19.8
14/08:30am 15.5 14.1 13.5 88 1.1 SW 13 22 7 12 1018.0 1018.0 19.8
14/08:00am 14.4 14.3 13.9 97 0.3 WSW 7 9 4 5 1017.6 1017.6 19.8
14/07:30am 14.5 12.8 13.7 95 0.4 SW 15 20 8 11 1017.3 1017.3 19.8
14/07:00am 14.7 12.8 14.1 96 0.3 WSW 17 20 9 11 1016.6 1016.6 19.8
14/06:30am 14.6 13.6 14.6 100 0.0 SW 13 20 7 11 1016.2 1016.2 19.8
14/06:00am 14.7 12.6 14.7 100 0.0 SW 19 26 10 14 1015.9 1015.9 19.8
14/05:30am 14.3 14.5 14.3 100 0.0 WNW 6 7 3 4 1015.5 1015.5 19.8
14/05:00am 14.3 14.0 14.3 100 0.0 NW 9 13 5 7 1015.7 1015.7 19.4
14/04:30am 14.5 12.7 14.5 100 0.0 WNW 17 22 9 12 1015.3 1015.3 19.4
14/04:00am 14.1 15.0 14.1 100 0.0 NW 2 7 1 4 1014.8 1014.8 18.0
14/03:30am 14.4 14.1 14.4 100 0.0 WNW 9 13 5 7 1015.1 1015.1 17.4
14/03:00am 14.2 13.1 14.2 100 0.0 NNW 13 17 7 9 1014.8 1014.8 17.2
14/02:50am 14.1 12.6 14.1 100 0.0 NW 15 20 8 11 1014.9 1014.9 17.0
14/02:41am 13.9 12.3 13.9 100 0.0 NW 15 20 8 11 1015.0 1015.0 16.8
14/02:30am 13.7 11.6 13.7 100 0.0 NW 17 20 9 11 1015.3 1015.3 16.4
14/02:29am 13.7 11.6 13.7 100 0.0 NW 17 20 9 11 1015.3 1015.3 16.2
14/02:24am 13.6 11.5 13.6 100 0.0 NW 17 20 9 11 1015.4 1015.4 15.6
14/02:00am 13.4 11.2 13.4 100 0.0 NW 17 22 9 12 1014.9 1014.9 13.4
14/01:30am 13.4 11.2 13.4 100 0.0 NW 17 24 9 13 1015.2 1015.2 11.4
14/01:05am 13.9 10.6 13.9 100 0.0 W 24 43 13 23 1015.4 1015.4 10.2
14/01:00am 13.8 9.3 13.8 100 0.0 W 30 43 16 23 1015.3 1015.3 10.2
14/12:56am 13.8 9.3 13.8 100 0.0 W 30 43 16 23 1015.3 1015.3 10.0
14/12:41am 13.9 9.4 13.9 100 0.0 W 30 43 16 23 1015.6 1015.6 9.0
14/12:30am 14.2 9.8 14.2 100 0.0 W 30 44 16 24 1015.4 1015.4 7.8
14/12:20am 14.5 11.4 14.5 100 0.0 WSW 24 35 13 19 1015.4 1015.4 6.8
14/12:16am 14.5 11.4 14.5 100 0.0 WSW 24 30 13 16 1015.3 1015.3 6.2
14/12:03am 14.5 10.2 14.5 100 0.0 W 30 48 16 26 1015.5 1015.5 5.0
14/12:00am 14.8 10.3 14.8 100 0.0 W 32 48 17 26 1015.3 1015.3 4.4
 
Date/Time
WST
Temp
°C
App
Temp
°C
Dew
Point
°C
Rel
Hum
%
Delta-T
°C
Wind Press
QNH
hPa
Press
MSL
hPa
Rain since
9am
mm
Dir  Spd
km/h
Gust
km/h
Spd
kts
Gust
kts
13/11:59pm 15.0 10.9 15.0 100 0.0 W 30 48 16 26 1015.4 1015.4 4.4
13/11:54pm 15.7 12.6 15.7 100 0.0 W 26 41 14 22 1015.1 1015.1 2.2
13/11:30pm 16.7 14.4 15.6 93 0.6 N 22 30 12 16 1014.8 1014.8 0.0
13/11:00pm 17.1 14.1 14.9 87 1.3 N 24 30 13 16 1014.8 1014.8 0.0
13/10:30pm 17.0 13.2 13.5 80 2.0 N 26 33 14 18 1015.0 1015.0 0.0
13/10:00pm 17.0 13.4 11.9 72 2.8 N 22 30 12 16 1015.0 1015.0 0.0
13/09:30pm 17.2 13.4 11.2 68 3.2 N 22 30 12 16 1015.1 1015.1 0.0
13/09:00pm 17.4 13.0 10.3 63 3.8 N 24 33 13 18 1015.0 1015.0 0.0
13/08:30pm 17.7 12.6 9.3 58 4.4 N 26 35 14 19 1015.1 1015.1 0.0
13/08:00pm 17.9 12.5 9.5 58 4.4 N 28 41 15 22 1015.0 1015.0 0.0
13/07:30pm 17.9 14.1 11.0 64 3.7 NNW 22 32 12 17 1014.9 1014.9 0.0
13/07:00pm 17.4 14.8 13.7 79 2.1 N 20 28 11 15 1014.8 1014.8 0.0
13/06:30pm 17.9 15.3 13.8 77 2.3 NNW 20 28 11 15 1014.4 1014.4 0.0
13/06:00pm 18.3 14.2 12.7 70 3.1 NNW 26 37 14 20 1014.2 1014.2 0.0
13/05:30pm 18.9 13.8 11.9 64 3.9 NNW 30 39 16 21 1014.1 1014.1 0.0
13/05:00pm 20.3 14.5 9.5 50 5.8 NNW 30 44 16 24 1013.8 1013.8 0.0
13/04:30pm 20.6 13.0 9.2 48 6.1 N 39 57 21 31 1013.6 1013.6 0.0
13/04:11pm 20.8 13.0 8.4 45 6.5 NNW 39 57 21 31 1013.9 1013.9 0.0
13/04:00pm 21.1 12.7 7.3 41 7.1 NNW 41 56 22 30 1014.1 1014.1 0.0
13/03:35pm 21.6 13.9 7.1 39 7.4 NNW 37 56 20 30 1014.3 1014.3 0.0
13/03:30pm 21.4 13.3 6.9 39 7.4 NNW 39 56 21 30 1014.3 1014.3 0.0
13/03:00pm 21.1 13.7 10.0 49 6.0 NNW 39 57 21 31 1014.6 1014.6 0.0
13/02:32pm 21.1 12.9 8.4 44 6.7 NNW 41 59 22 32 1014.8 1014.8 0.0
13/02:30pm 21.2 12.6 8.1 43 6.8 NNW 43 59 23 32 1014.8 1014.8 0.0
13/02:05pm 21.3 13.0 7.9 42 7.0 NNW 41 59 22 32 1015.2 1015.2 0.0
13/02:00pm 21.6 13.1 8.5 43 6.9 NNW 43 59 23 32 1015.3 1015.3 0.0
13/01:34pm 21.1 13.1 9.0 46 6.4 NNW 41 59 22 32 1015.4 1015.4 0.0
13/01:30pm 21.4 13.0 9.0 45 6.6 NNW 43 56 23 30 1015.6 1015.6 0.0
13/01:16pm 21.1 13.3 6.6 39 7.4 NNW 37 56 20 30 1015.8 1015.8 0.0
13/01:00pm 21.0 14.9 11.9 56 5.1 NNW 35 50 19 27 1016.3 1016.3 0.0
13/12:49pm 20.5 14.6 12.5 60 4.5 NNW 35 56 19 30 1016.5 1016.5 0.0
13/12:30pm 21.0 15.6 12.9 60 4.6 NNW 33 48 18 26 1016.9 1016.9 0.0
13/12:00pm 20.3 15.1 12.8 62 4.2 NNW 32 44 17 24 1017.4 1017.4 0.0
13/11:30am 19.8 13.8 10.0 53 5.3 NNW 32 43 17 23 1018.0 1018.0 0.0
13/11:00am 19.3 13.4 5.7 41 6.7 N 26 33 14 18 1018.4 1018.4 0.0
13/10:30am 18.5 13.0 5.7 43 6.3 N 24 33 13 18 1018.5 1018.5 0.0
13/10:00am 17.4 11.5 5.7 46 5.7 N 26 32 14 17 1018.7 1018.7 0.0
13/09:30am 15.6 10.1 5.8 52 4.7 N 24 33 13 18 1018.7 1018.7 0.0
13/09:00am 14.4 8.8 5.2 54 4.3 N 24 30 13 16 1019.0 1019.0 0.0
13/08:30am 12.6 8.2 7.5 71 2.5 N 20 26 11 14 1018.9 1018.9 0.0
13/08:00am 10.3 6.0 7.7 84 1.2 NNE 20 24 11 13 1018.9 1018.9 0.0
13/07:30am 7.0 3.5 7.0 100 0.0 N 15 19 8 10 1018.9 1018.9 0.0
13/07:00am 3.2 -0.4 3.2 100 0.0 N 11 13 6 7 1018.9 1018.9 0.0
13/06:30am 2.9 0.1 2.9 100 0.0 N 7 9 4 5 1018.8 1018.8 0.0
13/06:00am 3.1 1.6 3.1 100 0.0 CALM 0 0 0 0 1018.8 1018.8 0.0
13/05:30am 3.5 2.1 3.5 100 0.0 CALM 0 4 0 2 1018.8 1018.8 0.0
13/05:00am 4.3 1.7 4.3 100 0.0 NNE 7 9 4 5 1018.8 1018.8 0.0
13/04:30am 3.2 0.0 3.2 100 0.0 NE 9 11 5 6 1019.1 1019.1 0.0
13/04:00am 3.0 0.2 3.0 100 0.0 NE 7 9 4 5 1019.4 1019.4 0.0
13/03:30am 4.8 2.5 4.8 100 0.0 NE 6 7 3 4 1019.8 1019.8 0.0
13/03:00am 4.7 2.4 4.7 100 0.0 NE 6 9 3 5 1020.0 1020.0 0.0
13/02:30am 4.8 2.3 4.8 100 0.0 NE 7 7 4 4 1020.5 1020.5 0.0
13/02:00am 5.3 2.9 5.3 100 0.0 NE 7 7 4 4 1020.8 1020.8 0.0
13/01:30am 4.5 2.0 4.5 100 0.0 NE 7 9 4 5 1021.2 1021.2 0.0
13/01:00am 5.2 4.1 5.2 100 0.0 CALM 0 0 0 0 1021.3 1021.3 0.0
13/12:30am 5.8 4.8 5.8 100 0.0 CALM 0 0 0 0 1021.4 1021.4 0.0
13/12:00am 6.3 5.5 6.3 100 0.0 CALM 0 0 0 0 1021.6 1021.6 0.0
 
Date/Time
WST
Temp
°C
App
Temp
°C
Dew
Point
°C
Rel
Hum
%
Delta-T
°C
Wind Press
QNH
hPa
Press
MSL
hPa
Rain since
9am
mm
Dir  Spd
km/h
Gust
km/h
Spd
kts
Gust
kts
12/11:30pm 6.8 5.7 6.8 100 0.0 NE 2 7 1 4 1021.7 1021.7 0.0
12/11:00pm 7.7 6.0 7.7 100 0.0 NE 6 7 3 4 1022.0 1022.0 0.0
12/10:30pm 8.3 6.2 8.2 99 0.0 NE 9 9 5 5 1022.3 1022.3 0.0
12/10:00pm 8.8 7.2 8.7 99 0.0 NE 7 7 4 4 1022.5 1022.5 0.0
12/09:30pm 8.8 7.2 8.7 99 0.0 ENE 7 9 4 5 1022.8 1022.8 0.0
12/09:00pm 9.4 7.9 9.3 99 0.0 ENE 7 7 4 4 1023.0 1023.0 0.0
12/08:30pm 9.8 8.3 9.2 96 0.3 ENE 7 7 4 4 1023.1 1023.1 0.0
12/08:00pm 10.3 8.9 8.9 91 0.7 ENE 6 9 3 5 1023.1 1023.1 0.0
12/07:30pm 10.2 8.7 9.0 92 0.6 ENE 7 9 4 5 1023.1 1023.1 0.0
12/07:00pm 11.0 9.4 8.6 85 1.2 NE 7 9 4 5 1023.0 1023.0 0.0
12/06:30pm 13.6 12.2 8.7 72 2.5 WNW 6 7 3 4 1022.7 1022.7 0.0
12/06:00pm 15.7 13.6 8.4 62 3.7 WNW 9 9 5 5 1022.7 1022.7 0.0
12/05:30pm 16.6 14.0 7.8 56 4.4 WNW 11 15 6 8 1022.8 1022.8 0.0
12/05:00pm 18.2 14.5 7.9 51 5.2 WNW 17 20 9 11 1022.8 1022.8 0.0
12/04:30pm 19.1 14.7 6.6 44 6.3 NW 19 24 10 13 1022.8 1022.8 0.0
12/04:00pm 19.7 14.9 5.7 40 6.9 WNW 20 26 11 14 1022.8 1022.8 0.0
12/03:30pm 20.3 15.7 5.5 38 7.3 NW 19 24 10 13 1022.7 1022.7 0.0
12/03:00pm 20.6 16.4 3.8 33 8.0 NNW 15 22 8 12 1022.9 1022.9 0.0
12/02:30pm 20.4 15.7 5.2 37 7.5 N 19 28 10 15 1022.7 1022.7 0.0
12/02:00pm 20.2 14.5 5.1 37 7.4 N 24 32 13 17 1022.8 1022.8 0.0
12/01:30pm 20.1 14.4 5.0 37 7.4 N 24 32 13 17 1023.0 1023.0 0.0
12/01:00pm 19.8 14.0 4.3 36 7.4 N 24 33 13 18 1023.5 1023.5 0.0
12/12:30pm 19.3 14.5 5.7 41 6.7 N 20 30 11 16 1024.2 1024.2 0.0
12/12:00pm 18.6 13.0 5.5 42 6.4 N 24 33 13 18 1024.9 1024.9 0.0
12/11:30am 18.0 11.7 5.9 45 5.9 N 28 37 15 20 1025.2 1025.2 0.0
12/11:00am 17.1 10.8 5.7 47 5.5 NNE 28 35 15 19 1025.7 1025.7 0.0
12/10:30am 16.1 10.2 6.0 51 4.9 N 26 33 14 18 1026.1 1026.1 0.0
12/10:00am 15.0 9.4 5.5 53 4.5 NNE 24 33 13 18 1026.1 1026.1 0.0
12/09:30am 14.0 9.6 7.5 65 3.2 NNE 20 28 11 15 1026.4 1026.4 0.0
12/09:00am 12.0 8.4 8.3 78 1.8 NNE 17 20 9 11 1026.4 1026.4 0.0
12/08:30am 9.5 7.7 9.5 100 0.0 NNE 9 13 5 7 1026.5 1026.5 0.0
12/08:00am 6.0 3.8 6.0 100 0.0 NE 7 11 4 6 1026.3 1026.3 0.0
12/07:30am 2.5 -0.2 2.5 100 0.0 ENE 6 7 3 4 1026.1 1026.1 0.0
12/07:00am 2.1 -0.7 2.1 100 0.0 ENE 6 7 3 4 1025.9 1025.9 0.0
12/06:30am 1.9 0.2 1.9 100 0.0 CALM 0 0 0 0 1025.8 1025.8 0.0
12/06:00am 2.4 0.8 2.4 100 0.0 CALM 0 0 0 0 1026.0 1026.0 0.0
12/05:30am 2.8 1.3 2.8 100 0.0 CALM 0 0 0 0 1026.0 1026.0 0.0
12/05:00am 3.2 1.7 3.2 100 0.0 CALM 0 0 0 0 1025.7 1025.7 0.0
12/04:30am 3.0 0.4 3.0 100 0.0 ENE 6 7 3 4 1025.8 1025.8 0.0
12/04:00am 3.2 1.7 3.2 100 0.0 CALM 0 0 0 0 1026.1 1026.1 0.0
12/03:30am 3.4 0.8 3.4 100 0.0 ENE 6 6 3 3 1026.2 1026.2 0.0
12/03:00am 3.6 1.1 3.6 100 0.0 ENE 6 7 3 4 1026.3 1026.3 0.0
12/02:30am 4.4 3.2 4.4 100 0.0 CALM 0 0 0 0 1026.8 1026.8 0.0
12/02:00am 4.8 1.9 4.8 100 0.0 ENE 9 9 5 5 1026.9 1026.9 0.0
12/01:30am 4.9 2.4 4.9 100 0.0 ENE 7 9 4 5 1026.9 1026.9 0.0
12/01:00am 4.9 2.6 4.9 100 0.0 E 6 7 3 4 1027.3 1027.3 0.0
12/12:30am 5.1 2.7 5.1 100 0.0 ENE 7 7 4 4 1027.4 1027.4 0.0
12/12:00am 5.6 4.6 5.6 100 0.0 CALM 0 0 0 0 1027.6 1027.6 0.0
 
Date/Time
WST
Temp
°C
App
Temp
°C
Dew
Point
°C
Rel
Hum
%
Delta-T
°C
Wind Press
QNH
hPa
Press
MSL
hPa
Rain since
9am
mm
Dir  Spd
km/h
Gust
km/h
Spd
kts
Gust
kts
11/11:30pm 5.5 4.1 5.5 100 0.0 ENE 2 6 1 3 1027.9 1027.9 0.0
11/11:00pm 6.1 4.4 6.1 100 0.0 ENE 4 6 2 3 1028.1 1028.1 0.0
11/10:30pm 6.7 5.6 6.7 100 0.0 ENE 2 6 1 3 1028.3 1028.3 0.0
11/10:00pm 7.1 6.4 7.1 100 0.0 CALM 0 0 0 0 1028.5 1028.5 0.0
11/09:30pm 7.8 7.3 7.8 100 0.0 CALM 0 0 0 0 1028.4 1028.4 0.0
11/09:00pm 7.4 6.8 7.4 100 0.0 CALM 0 0 0 0 1028.4 1028.4 0.0
11/08:30pm 8.7 8.4 8.7 100 0.0 CALM 0 0 0 0 1028.4 1028.4 0.0
11/08:00pm 8.4 6.3 8.3 99 0.0 E 9 11 5 6 1028.2 1028.2 0.0
11/07:30pm 8.1 6.0 8.1 100 0.0 E 9 11 5 6 1028.3 1028.3 0.0
11/07:00pm 10.1 9.8 8.5 90 0.8 CALM 0 0 0 0 1028.4 1028.4 0.0
11/06:30pm 11.0 9.4 8.9 87 1.0 SW 7 9 4 5 1028.4 1028.4 0.0
11/06:00pm 12.1 10.2 8.9 81 1.6 SW 9 11 5 6 1028.0 1028.0 0.0
11/05:30pm 13.6 10.8 8.7 72 2.5 WSW 13 17 7 9 1027.8 1027.8 0.0
11/05:00pm 14.8 12.0 8.7 67 3.1 SW 13 15 7 8 1027.5 1027.5 0.0

Latest Capital City Observations: Canberra | Sydney | Melbourne | Brisbane | Adelaide | Perth | Hobart | Darwin

Other Formats:

Comma delimited format used in spreadsheet applications
http://www.bom.gov.au/fwo/IDW60901/IDW60901.94609.axf

JavaScript Object Notation format (JSON) in row-major order
http://www.bom.gov.au/fwo/IDW60901/IDW60901.94609.json